createdAt,value
2022-10-19T00:03:23.223Z,6.30
2022-10-19T00:08:28.051Z,9.80
2022-10-19T00:13:31.308Z,6.40
2022-10-19T00:18:34.718Z,9.80
2022-10-19T00:23:38.906Z,7.90
2022-10-19T00:28:43.765Z,5.70
2022-10-19T00:33:48.288Z,7.90
2022-10-19T00:38:53.459Z,6.50
2022-10-19T00:44:11.871Z,6.90
2022-10-19T00:49:38.993Z,8.00
2022-10-19T00:54:45.775Z,10.80
2022-10-19T01:07:46.708Z,5.60
2022-10-19T01:13:21.098Z,7.60
2022-10-19T01:18:59.154Z,5.50
2022-10-19T01:24:18.328Z,8.00
2022-10-19T01:29:42.692Z,6.60
2022-10-19T01:34:56.014Z,8.60
2022-10-19T01:40:11.120Z,6.50
2022-10-19T01:45:27.571Z,5.90
2022-10-19T01:50:43.804Z,4.60
2022-10-19T01:55:52.135Z,8.20
2022-10-19T02:01:00.534Z,5.70
2022-10-19T02:06:10.027Z,6.50
2022-10-19T02:11:13.782Z,6.60
2022-10-19T02:16:30.478Z,8.60
2022-10-19T02:21:33.777Z,10.60
2022-10-19T02:26:38.710Z,9.80
2022-10-19T02:31:43.152Z,10.30
2022-10-19T02:36:46.585Z,5.40
2022-10-19T02:42:10.381Z,9.00
2022-10-19T02:47:27.495Z,8.40
2022-10-19T02:52:30.930Z,6.70
2022-10-19T02:57:34.382Z,6.60
2022-10-19T03:02:38.092Z,7.00
2022-10-19T03:07:42.553Z,5.90
2022-10-19T03:12:45.890Z,6.00
2022-10-19T03:17:54.076Z,5.30
2022-10-19T03:22:57.377Z,4.30
2022-10-19T03:28:00.765Z,7.20
2022-10-19T03:33:04.169Z,6.50
2022-10-19T03:38:07.658Z,6.40
2022-10-19T03:43:11.058Z,6.50
2022-10-19T03:48:14.427Z,5.30
2022-10-19T03:53:17.717Z,5.40
2022-10-19T03:58:20.957Z,6.80
2022-10-19T04:03:24.334Z,6.30
2022-10-19T04:08:27.701Z,5.50
2022-10-19T04:13:32.391Z,6.30
2022-10-19T04:18:35.717Z,7.80
2022-10-19T04:23:39.303Z,4.50
2022-10-19T04:28:42.806Z,5.20
2022-10-19T04:38:55.128Z,8.10
2022-10-19T04:44:01.796Z,6.30
2022-10-19T04:49:07.007Z,5.00
2022-10-19T04:54:10.569Z,4.90
2022-10-19T04:59:14.086Z,5.20
2022-10-19T05:04:17.500Z,6.60
2022-10-19T05:09:21.247Z,4.20
2022-10-19T05:14:25.182Z,3.30
2022-10-19T05:19:28.486Z,3.80
2022-10-19T05:24:32.788Z,3.60
2022-10-19T05:29:36.105Z,4.60
2022-10-19T05:34:39.416Z,4.10
2022-10-19T05:39:43.293Z,3.90
2022-10-19T05:44:46.656Z,3.20
2022-10-19T05:49:49.929Z,2.00
2022-10-19T05:54:54.308Z,3.00
2022-10-19T05:59:58.640Z,4.10
2022-10-19T06:05:01.955Z,3.30
2022-10-19T06:10:07.970Z,3.20
2022-10-19T06:15:12.257Z,3.10
2022-10-19T06:20:15.566Z,2.70
2022-10-19T06:25:20.342Z,3.40
2022-10-19T06:30:24.407Z,3.30
2022-10-19T06:35:27.789Z,2.20
2022-10-19T06:40:31.095Z,2.10
2022-10-19T06:45:36.024Z,2.30
2022-10-19T06:50:39.431Z,3.30
2022-10-19T06:55:42.674Z,2.40
2022-10-19T07:00:46.050Z,1.90
2022-10-19T07:06:06.825Z,3.00
2022-10-19T07:11:15.617Z,5.70
2022-10-19T07:16:21.079Z,0.90
2022-10-19T07:21:25.002Z,2.60
2022-10-19T07:26:30.724Z,2.50
2022-10-19T07:31:34.188Z,2.40
2022-10-19T07:36:38.116Z,4.90
2022-10-19T07:41:41.450Z,1.70
2022-10-19T07:46:45.567Z,5.10
2022-10-19T07:51:54.163Z,2.70
2022-10-19T07:56:57.652Z,1.70
2022-10-19T08:02:04.790Z,2.20
2022-10-19T08:07:08.769Z,2.80
2022-10-19T08:12:15.151Z,1.70
2022-10-19T08:17:19.049Z,3.40
2022-10-19T08:22:22.764Z,2.20
2022-10-19T08:27:26.933Z,2.10
2022-10-19T08:32:30.394Z,1.60
2022-10-19T08:37:44.186Z,1.70
2022-10-19T08:42:58.024Z,1.40
2022-10-19T08:48:24.171Z,1.50
2022-10-19T08:53:58.657Z,3.40
2022-10-19T08:59:39.514Z,2.90
2022-10-19T09:04:50.499Z,1.80
2022-10-19T09:10:19.363Z,3.30
2022-10-19T09:15:40.337Z,2.50
2022-10-19T09:20:49.629Z,2.60
2022-10-19T09:25:54.126Z,3.10
2022-10-19T09:30:59.421Z,3.90
2022-10-19T09:36:06.827Z,2.20
2022-10-19T09:41:28.848Z,2.40
2022-10-19T09:47:12.966Z,4.00
2022-10-19T09:52:40.900Z,1.70
2022-10-19T09:57:48.614Z,2.20
2022-10-19T10:02:54.876Z,2.10
2022-10-19T10:07:58.671Z,3.00
2022-10-19T10:13:02.791Z,2.00
2022-10-19T10:18:06.492Z,1.40
2022-10-19T10:23:26.435Z,4.80
2022-10-19T10:28:31.579Z,1.40
2022-10-19T10:33:45.050Z,0.90
2022-10-19T10:39:05.371Z,2.10
2022-10-19T10:44:21.291Z,2.90
2022-10-19T10:49:34.441Z,2.50
2022-10-19T10:54:38.702Z,2.50
2022-10-19T11:00:28.981Z,1.30
2022-10-19T11:05:47.911Z,2.70
2022-10-19T11:11:15.332Z,1.40
2022-10-19T11:16:34.313Z,2.60
2022-10-19T11:21:40.577Z,2.60
2022-10-19T11:27:04.494Z,2.70
2022-10-19T11:32:26.165Z,1.40
2022-10-19T11:38:17.329Z,2.30
2022-10-19T11:43:58.647Z,2.00
2022-10-19T11:49:11.000Z,1.70
2022-10-19T11:54:45.382Z,3.00
2022-10-19T12:00:14.111Z,2.50
2022-10-19T12:05:44.908Z,2.20
2022-10-19T12:10:59.395Z,1.40
2022-10-19T12:16:06.186Z,4.50
2022-10-19T12:21:30.384Z,1.90
2022-10-19T12:26:37.232Z,1.40
2022-10-19T12:31:41.626Z,2.20
2022-10-19T12:36:55.038Z,0.90
2022-10-19T12:42:21.944Z,2.70
2022-10-19T12:47:26.240Z,1.80
2022-10-19T12:52:49.738Z,2.40
2022-10-19T12:58:25.398Z,2.50
2022-10-19T13:03:40.793Z,3.40
2022-10-19T13:08:57.012Z,3.60
2022-10-19T13:14:43.014Z,1.90
2022-10-19T13:19:46.383Z,3.10
2022-10-19T13:25:17.734Z,2.60
2022-10-19T13:30:39.141Z,2.30
2022-10-19T13:35:42.545Z,2.80
2022-10-19T13:40:51.696Z,2.80
2022-10-19T13:46:09.446Z,2.60
2022-10-19T13:51:39.074Z,3.00
2022-10-19T13:57:33.995Z,1.90
2022-10-19T14:03:19.376Z,3.30
2022-10-19T14:08:59.978Z,3.50
2022-10-19T14:14:14.712Z,2.00
2022-10-19T14:19:44.259Z,3.30
2022-10-19T14:24:47.701Z,2.10
2022-10-19T14:29:54.193Z,2.40
2022-10-19T14:35:06.619Z,1.70
2022-10-19T14:40:26.501Z,2.40
2022-10-19T14:45:33.064Z,3.30
2022-10-19T14:50:47.792Z,3.10
2022-10-19T14:55:55.798Z,3.40
2022-10-19T15:00:59.417Z,9.60
2022-10-19T15:06:07.734Z,5.20
2022-10-19T15:11:44.849Z,3.90
2022-10-19T15:17:06.234Z,4.80
2022-10-19T15:22:09.493Z,4.10
2022-10-19T15:27:23.772Z,2.70
2022-10-19T15:32:35.932Z,1.80
2022-10-19T15:37:45.014Z,7.30
2022-10-19T15:42:49.468Z,8.10
2022-10-19T15:48:21.868Z,6.10
2022-10-19T15:53:26.400Z,4.90
2022-10-19T15:58:29.816Z,3.90
2022-10-19T16:03:33.127Z,3.30
2022-10-19T16:08:36.593Z,3.50
2022-10-19T16:13:40.163Z,3.20
2022-10-19T16:18:43.524Z,3.60
2022-10-19T16:23:46.994Z,1.70
2022-10-19T16:28:50.283Z,2.60
2022-10-19T16:33:53.618Z,1.90
2022-10-19T16:38:56.921Z,1.90
2022-10-19T16:44:00.159Z,2.50
2022-10-19T16:49:03.445Z,3.00
2022-10-19T16:54:09.982Z,2.10
2022-10-19T16:59:17.133Z,2.50
2022-10-19T17:04:20.545Z,2.50
2022-10-19T17:09:42.228Z,2.60
2022-10-19T17:14:46.321Z,1.60
2022-10-19T17:19:49.654Z,2.50
2022-10-19T17:24:54.375Z,3.10
2022-10-19T17:29:57.786Z,4.00
2022-10-19T17:35:01.057Z,6.60
2022-10-19T17:40:05.848Z,4.20
2022-10-19T17:45:11.455Z,4.30
2022-10-19T17:50:14.920Z,3.20
2022-10-19T17:55:18.500Z,4.30
2022-10-19T18:00:22.041Z,2.00
2022-10-19T18:05:25.372Z,2.20
2022-10-19T18:10:29.063Z,3.00
2022-10-19T18:15:32.467Z,3.40
2022-10-19T18:20:39.898Z,3.10
2022-10-19T18:25:53.969Z,3.00
2022-10-19T18:31:07.431Z,2.50
2022-10-19T18:36:11.354Z,3.10
2022-10-19T18:46:25.965Z,4.20
2022-10-19T18:51:29.960Z,2.00
2022-10-19T18:56:39.448Z,4.90
2022-10-19T19:01:42.914Z,2.10
2022-10-19T19:06:46.359Z,3.10
2022-10-19T19:11:50.321Z,3.50
2022-10-19T19:16:53.720Z,1.30
2022-10-19T19:21:57.258Z,2.80
2022-10-19T19:27:00.574Z,1.60
2022-10-19T19:32:04.886Z,1.90
2022-10-19T19:37:10.467Z,2.10
2022-10-19T19:42:14.686Z,2.50
2022-10-19T19:47:19.737Z,1.80
2022-10-19T19:52:23.046Z,2.30
2022-10-19T19:57:26.461Z,2.60
2022-10-19T20:02:33.012Z,1.10
2022-10-19T20:07:36.685Z,1.70
2022-10-19T20:12:40.181Z,1.30
2022-10-19T20:17:44.545Z,3.60
2022-10-19T20:22:49.630Z,1.40
2022-10-19T20:27:52.982Z,2.40
2022-10-19T20:32:56.293Z,3.60
2022-10-19T20:37:59.606Z,3.80
2022-10-19T20:43:02.916Z,2.50
2022-10-19T20:48:06.634Z,2.60
2022-10-19T20:53:11.820Z,4.60
2022-10-19T20:58:15.108Z,2.00
2022-10-19T21:03:19.930Z,3.00
2022-10-19T21:08:23.277Z,3.40
2022-10-19T21:13:26.679Z,2.10
2022-10-19T21:18:29.906Z,2.40
2022-10-19T21:23:33.199Z,2.00
2022-10-19T21:28:36.764Z,2.50
2022-10-19T21:33:40.445Z,3.70
2022-10-19T21:38:44.540Z,3.80
2022-10-19T21:43:48.295Z,3.20
2022-10-19T21:48:53.136Z,3.90
2022-10-19T21:53:57.066Z,3.50
2022-10-19T21:59:00.759Z,4.80
2022-10-19T22:04:07.067Z,3.40
2022-10-19T22:09:16.725Z,4.00
2022-10-19T22:14:20.239Z,3.30
2022-10-19T22:19:23.553Z,6.90
2022-10-19T22:24:26.863Z,3.70
2022-10-19T22:29:30.127Z,3.20
2022-10-19T22:34:33.371Z,2.70
2022-10-19T22:39:36.860Z,4.80
2022-10-19T22:44:40.209Z,4.30
2022-10-19T22:49:43.562Z,3.20
2022-10-19T22:54:46.968Z,4.10
2022-10-19T22:59:50.248Z,4.50
2022-10-19T23:04:53.873Z,3.40
2022-10-19T23:09:57.078Z,3.80
2022-10-19T23:15:00.316Z,5.10
2022-10-19T23:20:04.006Z,3.70
2022-10-19T23:25:08.658Z,3.10
2022-10-19T23:30:12.165Z,2.70
2022-10-19T23:35:15.787Z,4.40
2022-10-19T23:40:18.993Z,3.90
2022-10-19T23:45:22.306Z,4.10
2022-10-19T23:50:25.925Z,5.90
2022-10-19T23:55:29.235Z,8.10
